createdAt,value
2023-11-03T00:00:31.259Z,95330.38
2023-11-03T00:02:34.445Z,95313.00
2023-11-03T00:04:38.079Z,95319.81
2023-11-03T00:06:44.983Z,95319.47
2023-11-03T00:08:48.271Z,95313.66
2023-11-03T00:10:51.404Z,95314.78
2023-11-03T00:12:56.037Z,95312.34
2023-11-03T00:14:59.809Z,95309.09
2023-11-03T00:17:02.974Z,95305.03
2023-11-03T00:19:05.919Z,95305.19
2023-11-03T00:21:10.272Z,95309.06
2023-11-03T00:23:12.388Z,95305.81
2023-11-03T00:25:15.790Z,95312.97
2023-11-03T00:27:18.872Z,95322.38
2023-11-03T00:29:22.477Z,95312.31
2023-11-03T00:31:25.992Z,95317.66
2023-11-03T00:33:29.962Z,95317.50
2023-11-03T00:35:33.151Z,95315.38
2023-11-03T00:37:36.526Z,95331.59
2023-11-03T00:39:41.869Z,95317.44
2023-11-03T00:41:45.147Z,95327.34
2023-11-03T00:43:48.023Z,95331.38
2023-11-03T00:45:52.569Z,95317.06
2023-11-03T00:47:56.671Z,95313.00
2023-11-03T00:49:59.088Z,95314.09
2023-11-03T00:52:02.255Z,95312.81
2023-11-03T00:54:07.585Z,95314.56
2023-11-03T00:56:12.069Z,95309.53
2023-11-03T00:58:15.237Z,95312.44
2023-11-03T01:00:18.724Z,95311.66
2023-11-03T01:02:23.412Z,95314.72
2023-11-03T01:04:26.721Z,95309.19
2023-11-03T01:06:29.940Z,95304.31
2023-11-03T01:08:33.293Z,95308.19
2023-11-03T01:10:36.545Z,95298.28
2023-11-03T01:12:42.320Z,95303.94
2023-11-03T01:14:46.024Z,95304.91
2023-11-03T01:16:50.703Z,95304.91
2023-11-03T01:18:55.918Z,95306.66
2023-11-03T01:21:00.383Z,95301.78
2023-11-03T01:23:03.554Z,95301.63
2023-11-03T01:25:07.773Z,95313.09
2023-11-03T01:27:10.887Z,95313.94
2023-11-03T01:29:13.716Z,95320.06
2023-11-03T01:31:17.081Z,95318.44
2023-11-03T01:33:20.269Z,95317.28
2023-11-03T01:35:25.840Z,95327.97
2023-11-03T01:37:29.060Z,95331.03
2023-11-03T01:39:32.392Z,95336.66
2023-11-03T01:41:34.453Z,95344.59
2023-11-03T01:43:38.123Z,95346.69
2023-11-03T01:45:42.374Z,95348.59
2023-11-03T01:47:45.911Z,95349.44
2023-11-03T01:49:49.097Z,95351.88
2023-11-03T01:51:54.074Z,95350.72
2023-11-03T01:53:56.216Z,95356.06
2023-11-03T01:56:00.212Z,95352.81
2023-11-03T01:58:03.542Z,95346.16
2023-11-03T02:00:08.589Z,95358.75
2023-11-03T02:02:12.354Z,95360.63
2023-11-03T02:04:15.502Z,95355.75
2023-11-03T02:06:19.512Z,95355.09
2023-11-03T02:08:24.065Z,95356.72
2023-11-03T02:10:27.188Z,95348.66
2023-11-03T02:12:30.281Z,95347.66
2023-11-03T02:14:33.533Z,95346.41
2023-11-03T02:16:37.238Z,95353.88
2023-11-03T02:18:40.447Z,95352.41
2023-11-03T02:20:43.681Z,95355.28
2023-11-03T02:22:47.317Z,95355.44
2023-11-03T02:24:51.038Z,95356.28
2023-11-03T02:26:54.395Z,95356.94
2023-11-03T02:28:58.187Z,95353.38
2023-11-03T02:31:01.881Z,95355.97
2023-11-03T02:33:05.070Z,95360.91
2023-11-03T02:35:09.498Z,95359.97
2023-11-03T02:37:12.793Z,95349.31
2023-11-03T02:39:16.561Z,95354.50
2023-11-03T02:41:21.100Z,95359.38
2023-11-03T02:43:24.573Z,95355.22
2023-11-03T02:45:27.876Z,95363.50
2023-11-03T02:47:31.142Z,95364.59
2023-11-03T02:49:35.132Z,95354.38
2023-11-03T02:51:38.443Z,95356.53
2023-11-03T02:53:41.528Z,95356.91
2023-11-03T02:55:44.615Z,95347.03
2023-11-03T02:57:49.349Z,95354.00
2023-11-03T02:59:52.529Z,95351.03
2023-11-03T03:01:58.063Z,95346.31
2023-11-03T03:04:01.345Z,95344.84
2023-11-03T03:06:05.169Z,95345.16
2023-11-03T03:08:08.973Z,95347.91
2023-11-03T03:10:11.203Z,95343.16
2023-11-03T03:12:14.368Z,95341.69
2023-11-03T03:14:17.851Z,95339.25
2023-11-03T03:16:21.507Z,95336.00
2023-11-03T03:18:24.761Z,95346.38
2023-11-03T03:20:27.194Z,95332.72
2023-11-03T03:22:30.504Z,95328.53
2023-11-03T03:24:33.896Z,95334.16
2023-11-03T03:26:36.973Z,95338.84
2023-11-03T03:28:40.136Z,95346.91
2023-11-03T03:30:44.623Z,95334.25
2023-11-03T03:32:47.131Z,95337.81
2023-11-03T03:34:50.330Z,95344.22
2023-11-03T03:36:53.564Z,95346.03
2023-11-03T03:38:56.655Z,95337.31
2023-11-03T03:40:59.782Z,95337.44
2023-11-03T03:43:01.965Z,95333.22
2023-11-03T03:45:05.797Z,95335.81
2023-11-03T03:47:12.016Z,95318.63
2023-11-03T03:49:15.392Z,95330.63
2023-11-03T03:51:19.067Z,95323.66
2023-11-03T03:53:22.296Z,95315.75
2023-11-03T03:55:24.516Z,95318.72
2023-11-03T03:57:27.724Z,95312.69
2023-11-03T03:59:31.336Z,95323.91
2023-11-03T04:01:34.528Z,95324.06
2023-11-03T04:03:40.973Z,95341.66
2023-11-03T04:05:44.320Z,95351.19
2023-11-03T04:07:47.492Z,95364.94
2023-11-03T04:09:50.863Z,95356.22
2023-11-03T04:11:54.083Z,95348.47
2023-11-03T04:13:56.326Z,95344.78
2023-11-03T04:15:59.499Z,95341.88
2023-11-03T04:18:02.839Z,95339.44
2023-11-03T04:20:09.686Z,95343.63
2023-11-03T04:22:12.803Z,95341.59
2023-11-03T04:24:15.976Z,95329.59
2023-11-03T04:26:18.196Z,95321.00
2023-11-03T04:28:21.656Z,95323.31
2023-11-03T04:30:24.768Z,95312.94
2023-11-03T04:32:27.939Z,95320.41
2023-11-03T04:34:30.267Z,95328.06
2023-11-03T04:36:34.851Z,95339.59
2023-11-03T04:38:38.074Z,95341.88
2023-11-03T04:40:41.291Z,95340.28
2023-11-03T04:42:44.485Z,95345.16
2023-11-03T04:44:47.693Z,95350.69
2023-11-03T04:46:50.775Z,95357.66
2023-11-03T04:48:54.378Z,95353.94
2023-11-03T04:50:56.535Z,95353.63
2023-11-03T04:53:01.146Z,95360.44
2023-11-03T04:55:04.513Z,95360.44
2023-11-03T04:57:08.027Z,95362.25
2023-11-03T04:59:12.257Z,95362.09
2023-11-03T05:01:15.782Z,95368.72
2023-11-03T05:03:20.252Z,95362.44
2023-11-03T05:05:23.576Z,95363.25
2023-11-03T05:07:25.703Z,95364.06
2023-11-03T05:09:30.159Z,95369.44
2023-11-03T05:11:33.259Z,95369.00
2023-11-03T05:13:35.385Z,95373.34
2023-11-03T05:15:38.504Z,95370.59
2023-11-03T05:17:41.636Z,95372.88
2023-11-03T05:19:44.797Z,95370.97
2023-11-03T05:21:48.182Z,95370.13
2023-11-03T05:23:51.329Z,95371.63
2023-11-03T05:25:55.777Z,95373.91
2023-11-03T05:27:58.893Z,95383.31
2023-11-03T05:30:02.004Z,95380.44
2023-11-03T05:32:06.068Z,95386.91
2023-11-03T05:34:09.360Z,95385.81
2023-11-03T05:36:12.721Z,95378.03
2023-11-03T05:38:14.914Z,95382.41
2023-11-03T05:40:18.197Z,95389.06
2023-11-03T05:42:22.913Z,95395.72
2023-11-03T05:44:26.257Z,95391.16
2023-11-03T05:46:29.477Z,95396.19
2023-11-03T05:48:32.803Z,95389.88
2023-11-03T05:50:36.239Z,95397.34
2023-11-03T05:52:39.566Z,95396.22
2023-11-03T05:54:42.844Z,95399.31
2023-11-03T05:56:46.108Z,95402.59
2023-11-03T05:58:51.616Z,95414.41
2023-11-03T06:00:55.528Z,95421.88
2023-11-03T06:02:58.938Z,95420.13
2023-11-03T06:05:02.134Z,95423.38
2023-11-03T06:07:07.820Z,95428.91
2023-11-03T06:09:12.679Z,95423.72
2023-11-03T06:11:15.878Z,95421.94
2023-11-03T06:13:18.052Z,95436.38
2023-11-03T06:15:22.526Z,95438.66
2023-11-03T06:17:26.116Z,95445.50
2023-11-03T06:19:29.232Z,95447.94
2023-11-03T06:21:32.322Z,95451.19
2023-11-03T06:23:35.465Z,95456.22
2023-11-03T06:25:40.090Z,95456.06
2023-11-03T06:27:44.689Z,95459.50
2023-11-03T06:29:48.072Z,95466.16
2023-11-03T06:31:52.738Z,95460.97
2023-11-03T06:33:55.897Z,95462.47
2023-11-03T06:36:00.517Z,95460.53
2023-11-03T06:38:03.997Z,95470.59
2023-11-03T06:40:13.941Z,95475.63
2023-11-03T06:42:17.128Z,95478.06
2023-11-03T06:44:20.204Z,95489.94
2023-11-03T06:46:23.400Z,95485.41
2023-11-03T06:48:26.956Z,95490.28
2023-11-03T06:50:30.103Z,95485.09
2023-11-03T06:52:33.357Z,95492.56
2023-11-03T06:54:36.662Z,95488.84
2023-11-03T06:56:39.777Z,95486.91
2023-11-03T06:58:42.964Z,95491.16
2023-11-03T07:00:47.485Z,95505.59
2023-11-03T07:02:50.775Z,95508.84
2023-11-03T07:04:55.726Z,95513.59
2023-11-03T07:06:58.932Z,95512.59
2023-11-03T07:09:01.188Z,95516.03
2023-11-03T07:11:05.138Z,95517.31
2023-11-03T07:13:09.598Z,95522.22
2023-11-03T07:15:13.568Z,95526.28
2023-11-03T07:17:19.602Z,95525.97
2023-11-03T07:19:23.021Z,95536.06
2023-11-03T07:21:27.787Z,95535.06
2023-11-03T07:23:31.038Z,95526.97
2023-11-03T07:25:34.147Z,95530.25
2023-11-03T07:27:38.754Z,95532.47
2023-11-03T07:29:41.903Z,95529.22
2023-11-03T07:31:47.604Z,95538.34
2023-11-03T07:33:51.198Z,95539.66
2023-11-03T07:35:55.389Z,95535.28
2023-11-03T07:37:59.941Z,95538.38
2023-11-03T07:40:03.676Z,95541.13
2023-11-03T07:42:07.559Z,95547.81
2023-11-03T07:44:13.666Z,95551.22
2023-11-03T07:46:16.096Z,95543.25
2023-11-03T07:48:19.934Z,95545.69
2023-11-03T07:50:23.164Z,95546.19
2023-11-03T07:52:26.622Z,95549.16
2023-11-03T07:54:31.195Z,95550.78
2023-11-03T07:56:37.031Z,95548.84
2023-11-03T07:58:40.515Z,95552.75
2023-11-03T08:00:43.069Z,95543.00
2023-11-03T08:02:46.233Z,95545.13
2023-11-03T08:04:49.698Z,95548.06
2023-11-03T08:06:53.417Z,95550.22
2023-11-03T08:08:55.820Z,95553.13
2023-11-03T08:11:00.787Z,95552.81
2023-11-03T08:13:06.252Z,95555.75
2023-11-03T08:15:15.182Z,95557.88
2023-11-03T08:17:21.409Z,95559.03
2023-11-03T08:19:26.257Z,95570.88
2023-11-03T08:21:29.806Z,95567.16
2023-11-03T08:23:33.529Z,95571.41
2023-11-03T08:25:36.720Z,95565.88
2023-11-03T08:27:41.395Z,95568.31
2023-11-03T08:29:46.306Z,95565.41
2023-11-03T08:31:49.753Z,95560.03
2023-11-03T08:33:53.189Z,95564.09
2023-11-03T08:35:56.690Z,95561.34
2023-11-03T08:38:00.048Z,95569.50
2023-11-03T08:40:05.937Z,95569.00
2023-11-03T08:42:10.435Z,95570.97
2023-11-03T08:44:15.974Z,95573.09
2023-11-03T08:46:19.205Z,95570.81
2023-11-03T08:48:22.551Z,95582.34
2023-11-03T08:50:27.937Z,95585.94
2023-11-03T08:52:31.438Z,95586.28
2023-11-03T08:54:35.424Z,95595.25
2023-11-03T08:56:40.252Z,95595.56
2023-11-03T08:58:43.685Z,95603.41
2023-11-03T09:00:52.552Z,95607.59
2023-11-03T09:02:56.990Z,95606.66
2023-11-03T09:04:59.217Z,95618.22
2023-11-03T09:07:03.052Z,95611.84
2023-11-03T09:09:06.304Z,95618.69
2023-11-03T09:11:09.553Z,95622.59
2023-11-03T09:13:13.076Z,95626.50
2023-11-03T09:15:16.312Z,95621.63
2023-11-03T09:17:20.842Z,95623.38
2023-11-03T09:19:24.026Z,95612.47
2023-11-03T09:21:27.979Z,95614.56
2023-11-03T09:23:31.372Z,95609.03
2023-11-03T09:25:34.826Z,95612.31
2023-11-03T09:27:38.835Z,95613.75
2023-11-03T09:29:42.605Z,95611.63
2023-11-03T09:31:46.984Z,95611.31
2023-11-03T09:33:51.561Z,95604.75
2023-11-03T09:35:55.760Z,95607.53
2023-11-03T09:37:58.182Z,95608.81
2023-11-03T09:40:02.731Z,95607.50
2023-11-03T09:42:07.153Z,95600.94
2023-11-03T09:44:11.498Z,95601.28
2023-11-03T09:46:14.909Z,95603.56
2023-11-03T09:48:20.823Z,95605.50
2023-11-03T09:50:26.246Z,95601.88
2023-11-03T09:52:32.803Z,95598.94
2023-11-03T09:54:37.223Z,95607.44
2023-11-03T09:56:41.087Z,95601.88
2023-11-03T09:58:45.966Z,95602.50
2023-11-03T10:00:49.739Z,95599.38
2023-11-03T10:02:52.623Z,95598.41
2023-11-03T10:04:55.997Z,95590.09
2023-11-03T10:07:01.904Z,95586.84
2023-11-03T10:09:07.110Z,95584.72
2023-11-03T10:11:12.631Z,95592.03
2023-11-03T10:13:17.197Z,95590.53
2023-11-03T10:15:21.155Z,95582.72
2023-11-03T10:17:25.455Z,95585.97
2023-11-03T10:19:29.549Z,95579.28
2023-11-03T10:21:32.883Z,95578.75
2023-11-03T10:23:39.096Z,95578.94
2023-11-03T10:25:42.257Z,95582.53
2023-11-03T10:27:52.821Z,95575.81
2023-11-03T10:29:55.687Z,95566.53
2023-11-03T10:32:01.681Z,95573.06
2023-11-03T10:34:05.395Z,95570.81
2023-11-03T10:36:09.718Z,95571.28
2023-11-03T10:38:12.950Z,95568.31
2023-11-03T10:40:17.048Z,95568.50
2023-11-03T10:42:24.754Z,95570.47
2023-11-03T10:44:33.351Z,95564.91
2023-11-03T10:46:39.417Z,95566.44
2023-11-03T10:48:47.120Z,95567.91
2023-11-03T10:51:09.961Z,95571.63
2023-11-03T10:53:21.086Z,95567.19
2023-11-03T10:55:31.492Z,95574.34
2023-11-03T10:57:40.108Z,95567.81
2023-11-03T10:59:45.878Z,95571.06
2023-11-03T11:01:54.383Z,95569.56
2023-11-03T11:04:03.918Z,95571.50
2023-11-03T11:06:13.233Z,95569.06
2023-11-03T11:08:18.978Z,95568.22
2023-11-03T11:10:36.592Z,95576.38
2023-11-03T11:12:50.138Z,95564.13
2023-11-03T11:14:53.867Z,95569.63
2023-11-03T11:16:57.938Z,95571.25
2023-11-03T11:19:11.601Z,95568.31
2023-11-03T11:21:22.013Z,95572.16
2023-11-03T11:23:26.313Z,95570.50
2023-11-03T11:25:34.910Z,95574.69
2023-11-03T11:27:40.426Z,95572.69
2023-11-03T11:29:43.220Z,95579.22
2023-11-03T11:31:50.639Z,95581.28
2023-11-03T11:34:04.386Z,95578.84
2023-11-03T11:36:22.287Z,95584.09
2023-11-03T11:38:27.507Z,95578.22
2023-11-03T11:40:33.519Z,95572.16
2023-11-03T11:42:44.202Z,95581.19
2023-11-03T11:44:47.892Z,95581.53
2023-11-03T11:46:56.244Z,95575.81
2023-11-03T11:49:03.671Z,95581.22
2023-11-03T11:51:11.622Z,95570.78
2023-11-03T11:53:15.775Z,95574.09
2023-11-03T11:55:20.453Z,95574.59
2023-11-03T11:57:38.935Z,95573.81
2023-11-03T11:59:44.393Z,95576.69
2023-11-03T12:01:51.082Z,95574.09
2023-11-03T12:03:55.203Z,95571.81
2023-11-03T12:06:01.684Z,95572.66
2023-11-03T12:08:05.624Z,95575.09
2023-11-03T12:10:10.981Z,95577.72
2023-11-03T12:12:16.519Z,95574.25
2023-11-03T12:14:19.825Z,95575.38
2023-11-03T12:16:35.475Z,95571.09
2023-11-03T12:18:40.492Z,95574.69
2023-11-03T12:20:43.768Z,95585.75
2023-11-03T12:22:48.189Z,95577.75
2023-11-03T12:24:56.480Z,95573.34
2023-11-03T12:26:59.988Z,95581.38
2023-11-03T12:29:31.183Z,95577.47
2023-11-03T12:31:35.898Z,95574.22
2023-11-03T12:33:40.288Z,95577.00
2023-11-03T12:35:45.377Z,95570.78
2023-11-03T12:37:49.251Z,95576.50
2023-11-03T12:39:53.526Z,95568.13
2023-11-03T12:42:07.922Z,95578.41
2023-11-03T12:44:16.725Z,95582.78
2023-11-03T12:46:20.108Z,95579.38
2023-11-03T12:48:25.481Z,95582.63
2023-11-03T12:50:29.970Z,95582.91
2023-11-03T12:52:34.697Z,95587.44
2023-11-03T12:54:37.890Z,95587.16
2023-11-03T12:56:44.974Z,95583.91
2023-11-03T12:58:48.740Z,95583.09
2023-11-03T13:00:52.360Z,95583.09
2023-11-03T13:02:56.711Z,95589.13
2023-11-03T13:05:07.121Z,95585.72
2023-11-03T13:07:12.670Z,95591.56
2023-11-03T13:09:19.695Z,95589.59
2023-11-03T13:11:25.077Z,95596.91
2023-11-03T13:13:28.577Z,95596.56
2023-11-03T13:15:35.125Z,95595.09
2023-11-03T13:17:41.311Z,95592.19
2023-11-03T13:19:44.458Z,95594.00
2023-11-03T13:21:48.960Z,95592.72
2023-11-03T13:23:52.232Z,95594.72
2023-11-03T13:25:55.326Z,95592.91
2023-11-03T13:28:00.198Z,95598.28
2023-11-03T13:30:03.466Z,95603.34
2023-11-03T13:32:12.319Z,95606.31
2023-11-03T13:34:15.440Z,95608.13
2023-11-03T13:36:20.769Z,95607.31
2023-11-03T13:38:28.051Z,95617.75
2023-11-03T13:40:36.122Z,95619.38
2023-11-03T13:42:38.977Z,95613.50
2023-11-03T13:44:44.446Z,95621.53
2023-11-03T13:46:48.743Z,95613.84
2023-11-03T13:48:51.947Z,95634.41
2023-11-03T13:50:55.466Z,95615.50
2023-11-03T13:52:59.053Z,95629.19
2023-11-03T13:55:07.514Z,95637.03
2023-11-03T13:57:11.315Z,95638.00
2023-11-03T13:59:14.643Z,95632.16
2023-11-03T14:01:17.967Z,95644.06
2023-11-03T14:03:20.192Z,95640.78
2023-11-03T14:05:23.529Z,95651.41
2023-11-03T14:07:26.755Z,95644.75
2023-11-03T14:09:29.006Z,95649.47
2023-11-03T14:11:33.755Z,95656.69
2023-11-03T14:13:42.528Z,95656.69
2023-11-03T14:15:44.956Z,95665.16
2023-11-03T14:17:48.412Z,95665.31
2023-11-03T14:19:55.114Z,95668.78
2023-11-03T14:21:58.401Z,95670.38
2023-11-03T14:24:02.864Z,95676.59
2023-11-03T14:26:10.392Z,95678.56
2023-11-03T14:28:17.814Z,95682.81
2023-11-03T14:47:08.739Z,95699.59
2023-11-03T14:49:12.575Z,95702.38
2023-11-03T14:51:16.127Z,95699.59
2023-11-03T14:53:19.445Z,95704.81
2023-11-03T14:55:25.669Z,95701.69
2023-11-03T14:57:32.526Z,95694.03
2023-11-03T14:59:36.052Z,95700.25
2023-11-03T15:01:39.550Z,95714.13
2023-11-03T15:03:44.400Z,95714.75
2023-11-03T15:05:48.235Z,95716.41
2023-11-03T15:07:52.125Z,95719.00
2023-11-03T15:09:56.033Z,95712.81
2023-11-03T15:12:00.517Z,95723.25
2023-11-03T15:14:03.955Z,95719.63
2023-11-03T15:16:10.512Z,95725.53
2023-11-03T15:18:14.226Z,95736.94
2023-11-03T15:20:18.876Z,95732.69
2023-11-03T15:22:22.483Z,95731.88
2023-11-03T15:24:29.053Z,95725.19
2023-11-03T15:26:34.683Z,95723.59
2023-11-03T15:28:39.121Z,95731.41
2023-11-03T15:30:42.582Z,95732.72
2023-11-03T15:32:45.577Z,95740.72
2023-11-03T15:34:49.430Z,95738.28
2023-11-03T15:36:54.524Z,95746.28
2023-11-03T15:39:05.226Z,95751.50
2023-11-03T15:41:08.600Z,95749.88
2023-11-03T15:43:11.929Z,95750.88
2023-11-03T15:45:16.547Z,95755.56
2023-11-03T15:47:24.764Z,95763.72
2023-11-03T15:49:30.818Z,95766.50
2023-11-03T15:51:41.425Z,95757.22
2023-11-03T15:53:52.394Z,95773.38
2023-11-03T15:55:57.198Z,95770.25
2023-11-03T15:58:00.464Z,95768.97
2023-11-03T16:00:04.697Z,95774.84
2023-11-03T16:02:17.697Z,95771.63
2023-11-03T16:04:24.578Z,95776.69
2023-11-03T16:06:28.441Z,95777.34
2023-11-03T16:08:31.695Z,95784.81
2023-11-03T16:10:36.645Z,95778.13
2023-11-03T16:12:40.603Z,95778.78
2023-11-03T16:14:43.987Z,95777.81
2023-11-03T16:16:49.545Z,95778.59
2023-11-03T16:18:53.072Z,95780.41
2023-11-03T16:20:56.634Z,95782.84
2023-11-03T16:23:02.262Z,95785.25
2023-11-03T16:25:06.641Z,95788.34
2023-11-03T16:27:11.299Z,95785.25
2023-11-03T16:29:15.383Z,95787.06
2023-11-03T16:31:19.013Z,95795.50
2023-11-03T16:33:22.432Z,95799.91
2023-11-03T16:35:25.047Z,95797.63
2023-11-03T16:37:28.556Z,95800.41
2023-11-03T16:39:32.531Z,95805.44
2023-11-03T16:41:36.799Z,95801.03
2023-11-03T16:43:41.490Z,95798.44
2023-11-03T16:45:45.896Z,95811.16
2023-11-03T16:47:49.242Z,95806.59
2023-11-03T16:49:53.613Z,95808.06
2023-11-03T16:51:56.863Z,95811.84
2023-11-03T16:54:01.001Z,95819.34
2023-11-03T16:56:05.049Z,95819.16
2023-11-03T16:58:08.197Z,95813.13
2023-11-03T17:00:20.797Z,95821.63
2023-11-03T17:02:28.074Z,95827.94
2023-11-03T17:04:33.680Z,95819.66
2023-11-03T17:06:37.369Z,95820.94
2023-11-03T17:08:40.636Z,95821.41
2023-11-03T17:10:42.919Z,95824.97
2023-11-03T17:12:56.930Z,95829.53
2023-11-03T17:15:06.192Z,95823.69
2023-11-03T17:17:10.799Z,95829.53
2023-11-03T17:19:14.010Z,95827.09
2023-11-03T17:21:18.731Z,95833.09
2023-11-03T17:23:21.974Z,95825.28
2023-11-03T17:25:25.952Z,95832.00
2023-11-03T17:27:30.220Z,95835.41
2023-11-03T17:29:35.727Z,95833.78
2023-11-03T17:31:39.176Z,95838.16
2023-11-03T17:33:44.246Z,95839.00
2023-11-03T17:35:47.915Z,95845.16
2023-11-03T17:37:51.983Z,95840.28
2023-11-03T17:39:55.481Z,95843.69
2023-11-03T17:41:58.933Z,95848.59
2023-11-03T17:44:02.185Z,95850.06
2023-11-03T17:46:06.605Z,95853.47
2023-11-03T17:48:10.434Z,95858.69
2023-11-03T17:50:15.820Z,95855.59
2023-11-03T17:52:19.195Z,95851.50
2023-11-03T17:54:26.168Z,95859.63
2023-11-03T17:56:31.113Z,95849.69
2023-11-03T17:58:34.807Z,95853.13
2023-11-03T18:00:38.646Z,95854.09
2023-11-03T18:02:43.613Z,95858.19
2023-11-03T18:04:49.010Z,95859.00
2023-11-03T18:06:53.819Z,95858.81
2023-11-03T18:08:58.667Z,95860.31
2023-11-03T18:11:02.146Z,95860.97
2023-11-03T18:13:05.300Z,95862.59
2023-11-03T18:15:11.281Z,95855.75
2023-11-03T18:17:14.775Z,95855.09
2023-11-03T18:19:18.389Z,95860.97
2023-11-03T18:21:21.975Z,95864.22
2023-11-03T18:23:25.586Z,95863.56
2023-11-03T18:25:29.301Z,95864.38
2023-11-03T18:27:33.292Z,95868.78
2023-11-03T18:29:37.103Z,95866.16
2023-11-03T18:31:39.369Z,95874.78
2023-11-03T18:33:42.848Z,95872.19
2023-11-03T18:35:46.160Z,95874.00
2023-11-03T18:37:48.406Z,95867.13
2023-11-03T18:39:53.185Z,95869.09
2023-11-03T18:41:56.691Z,95872.00
2023-11-03T18:43:59.959Z,95869.56
2023-11-03T18:46:03.750Z,95868.22
2023-11-03T18:48:07.262Z,95873.28
2023-11-03T18:52:19.637Z,95872.31
2023-11-03T19:02:07.246Z,95879.28
2023-11-03T19:07:07.999Z,95877.50
2023-11-03T19:07:40.027Z,95889.88
2023-11-03T19:09:44.707Z,95890.84
2023-11-03T19:11:49.324Z,95897.84
2023-11-03T19:13:51.958Z,95903.22
2023-11-03T19:15:55.167Z,95905.81
2023-11-03T19:17:58.593Z,95904.81
2023-11-03T19:20:02.096Z,95899.63
2023-11-03T19:22:06.202Z,95907.44
2023-11-03T19:24:08.865Z,95905.81
2023-11-03T19:26:12.223Z,95904.47
2023-11-03T19:28:17.782Z,95900.84
2023-11-03T19:30:21.270Z,95908.81
2023-11-03T19:32:25.595Z,95897.22
2023-11-03T19:34:28.920Z,95907.34
2023-11-03T19:36:32.228Z,95907.34
2023-11-03T19:38:35.570Z,95903.22
2023-11-03T19:40:41.083Z,95902.75
2023-11-03T19:42:44.473Z,95902.06
2023-11-03T19:44:49.691Z,95898.50
2023-11-03T19:46:52.928Z,95906.16
2023-11-03T19:48:56.190Z,95908.59
2023-11-03T19:50:59.480Z,95915.59
2023-11-03T19:53:02.881Z,95912.47
2023-11-03T19:55:07.060Z,95914.25
2023-11-03T19:57:10.789Z,95926.16
2023-11-03T19:59:14.178Z,95923.56
2023-11-03T20:01:19.480Z,95922.41
2023-11-03T20:03:23.137Z,95918.72
2023-11-03T20:05:26.450Z,95927.50
2023-11-03T20:07:29.874Z,95925.84
2023-11-03T20:09:32.832Z,95921.13
2023-11-03T20:11:36.072Z,95927.59
2023-11-03T20:13:40.458Z,95926.09
2023-11-03T20:15:44.096Z,95921.19
2023-11-03T20:17:48.718Z,95930.16
2023-11-03T20:19:52.027Z,95918.25
2023-11-03T20:21:55.371Z,95932.91
2023-11-03T20:23:58.770Z,95926.19
2023-11-03T20:26:01.928Z,95923.41
2023-11-03T20:28:05.330Z,95927.66
2023-11-03T20:30:10.086Z,95936.56
2023-11-03T20:32:13.638Z,95935.91
2023-11-03T20:34:18.313Z,95922.91
2023-11-03T20:36:21.627Z,95935.75
2023-11-03T20:38:23.900Z,95933.00
2023-11-03T20:40:27.171Z,95932.16
2023-11-03T20:42:30.617Z,95931.22
2023-11-03T20:44:34.792Z,95936.41
2023-11-03T20:46:38.273Z,95939.81
2023-11-03T20:48:41.706Z,95938.88
2023-11-03T20:50:46.770Z,95938.72
2023-11-03T20:52:50.099Z,95928.31
2023-11-03T20:54:53.354Z,95927.66
2023-11-03T20:56:55.490Z,95933.16
2023-11-03T20:58:59.493Z,95931.00
2023-11-03T21:01:02.816Z,95926.91
2023-11-03T21:03:06.687Z,95924.31
2023-11-03T21:05:11.233Z,95931.47
2023-11-03T21:07:15.927Z,95928.16
2023-11-03T21:09:21.891Z,95929.97
2023-11-03T21:11:24.264Z,95930.13
2023-11-03T21:13:29.948Z,95930.13
2023-11-03T21:15:33.445Z,95929.16
2023-11-03T21:17:36.775Z,95924.91
2023-11-03T21:19:39.972Z,95926.16
2023-11-03T21:21:43.199Z,95931.69
2023-11-03T21:23:50.555Z,95936.88
2023-11-03T21:25:56.443Z,95931.16
2023-11-03T21:27:59.589Z,95938.81
2023-11-03T21:30:03.538Z,95933.78
2023-11-03T21:32:09.481Z,95938.47
2023-11-03T21:34:16.251Z,95937.13
2023-11-03T21:36:26.071Z,95937.72
2023-11-03T21:38:32.528Z,95936.69
2023-11-03T21:40:37.151Z,95936.31
2023-11-03T21:42:40.484Z,95936.09
2023-11-03T21:44:43.829Z,95932.00
2023-11-03T21:46:46.929Z,95929.69
2023-11-03T21:48:50.281Z,95935.34
2023-11-03T21:50:54.048Z,95927.69
2023-11-03T21:52:57.303Z,95933.22
2023-11-03T21:55:01.167Z,95936.91
2023-11-03T21:57:06.318Z,95933.78
2023-11-03T21:59:09.527Z,95936.00
2023-11-03T22:01:12.798Z,95936.59
2023-11-03T22:03:16.227Z,95936.06
2023-11-03T22:05:19.836Z,95937.16
2023-11-03T22:07:23.260Z,95936.66
2023-11-03T22:09:26.359Z,95942.00
2023-11-03T22:11:30.349Z,95940.63
2023-11-03T22:13:36.256Z,95944.50
2023-11-03T22:15:41.559Z,95936.19
2023-11-03T22:17:53.049Z,95932.09
2023-11-03T22:20:01.723Z,95930.59
2023-11-03T22:22:05.985Z,95923.94
2023-11-03T22:24:09.628Z,95924.38
2023-11-03T22:26:18.297Z,95928.34
2023-11-03T22:28:23.858Z,95931.53
2023-11-03T22:30:28.423Z,95935.38
2023-11-03T22:32:31.706Z,95925.84
2023-11-03T22:34:33.909Z,95932.97
2023-11-03T22:36:37.216Z,95937.78
2023-11-03T22:38:40.602Z,95932.59
2023-11-03T22:40:44.099Z,95927.63
2023-11-03T22:42:47.472Z,95925.47
2023-11-03T22:44:50.714Z,95930.13
2023-11-03T22:46:55.347Z,95927.81
2023-11-03T22:48:59.927Z,95925.81
2023-11-03T22:51:03.269Z,95933.88
2023-11-03T22:53:06.607Z,95922.78
2023-11-03T22:55:11.945Z,95931.84
2023-11-03T22:57:15.584Z,95931.13
2023-11-03T22:59:18.911Z,95935.66
2023-11-03T23:01:22.112Z,95935.13
2023-11-03T23:03:27.224Z,95934.59
2023-11-03T23:05:33.307Z,95948.81
2023-11-03T23:07:36.526Z,95955.06
2023-11-03T23:09:40.616Z,95949.34
2023-11-03T23:11:43.818Z,95951.56
2023-11-03T23:13:46.293Z,95948.53
2023-11-03T23:15:50.106Z,95945.94
2023-11-03T23:17:53.341Z,95951.13
2023-11-03T23:19:57.929Z,95947.19
2023-11-03T23:22:01.170Z,95948.00
2023-11-03T23:24:04.642Z,95953.63
2023-11-03T23:26:07.982Z,95958.13
2023-11-03T23:28:11.463Z,95959.75
2023-11-03T23:30:14.721Z,95955.81
2023-11-03T23:32:17.904Z,95947.50
2023-11-03T23:34:21.429Z,95945.31
2023-11-03T23:36:27.034Z,95947.75
2023-11-03T23:38:30.561Z,95944.50
2023-11-03T23:40:33.965Z,95947.91
2023-11-03T23:42:36.206Z,95952.69
2023-11-03T23:44:39.366Z,95948.31
2023-11-03T23:46:42.520Z,95956.34
2023-11-03T23:48:46.351Z,95947.91
2023-11-03T23:50:49.544Z,95947.66
2023-11-03T23:52:54.149Z,95947.78
2023-11-03T23:54:57.306Z,95950.78
2023-11-03T23:57:00.411Z,95952.00
2023-11-03T23:59:03.597Z,95955.69
